createdAt,value
2022-12-22T01:38:35.171Z,0.60
2022-12-22T01:39:35.138Z,0.60
2022-12-22T01:40:35.100Z,0.59
2022-12-22T01:41:35.063Z,0.57
2022-12-22T01:42:35.038Z,0.63
2022-12-22T01:43:34.982Z,0.63
2022-12-22T01:44:34.937Z,0.62
2022-12-22T01:45:34.887Z,0.63
2022-12-22T01:46:34.936Z,0.63
2022-12-22T01:47:34.818Z,0.62
2022-12-22T01:48:34.768Z,0.58
2022-12-22T01:49:34.770Z,0.64
2022-12-22T01:50:34.680Z,0.65
2022-12-22T01:51:34.677Z,0.66
2022-12-22T01:52:34.596Z,0.64
2022-12-22T01:53:34.554Z,0.61
2022-12-22T01:54:34.510Z,0.66
2022-12-22T01:55:34.469Z,0.67
2022-12-22T01:56:34.429Z,0.65
2022-12-22T01:57:34.384Z,0.61
2022-12-22T01:58:34.367Z,0.67
2022-12-22T01:59:34.385Z,0.68
2022-12-22T02:00:34.243Z,0.68
2022-12-22T02:01:34.323Z,0.67
2022-12-22T02:02:34.346Z,0.59
2022-12-22T02:03:34.216Z,0.68
2022-12-22T02:04:34.065Z,0.69
2022-12-22T02:05:34.029Z,0.64
2022-12-22T02:06:34.001Z,0.66
2022-12-22T02:07:33.957Z,0.71
2022-12-22T02:08:33.923Z,0.70
2022-12-22T02:09:33.880Z,0.70
2022-12-22T02:10:33.827Z,0.71
2022-12-22T02:11:33.822Z,0.70
2022-12-22T02:12:33.756Z,0.70
2022-12-22T02:13:33.717Z,0.65
2022-12-22T02:14:33.719Z,0.71
2022-12-22T02:15:33.636Z,0.72
2022-12-22T02:16:33.704Z,0.68
2022-12-22T02:17:33.571Z,0.72
2022-12-22T02:18:33.535Z,0.72
2022-12-22T02:19:33.493Z,0.73
2022-12-22T02:20:33.462Z,0.73
2022-12-22T02:21:33.413Z,0.69
2022-12-22T02:22:33.374Z,0.73
2022-12-22T02:23:33.348Z,0.73
2022-12-22T02:24:33.302Z,0.73
2022-12-22T02:25:33.264Z,0.74
2022-12-22T02:26:33.273Z,0.74
2022-12-22T02:27:33.200Z,0.75
2022-12-22T02:28:33.157Z,0.73
2022-12-22T02:29:33.103Z,0.75
2022-12-22T02:30:33.118Z,0.76
2022-12-22T02:31:33.078Z,0.75
2022-12-22T02:32:32.980Z,0.75
2022-12-22T02:33:32.937Z,0.74
2022-12-22T02:34:32.896Z,0.76
2022-12-22T02:35:32.858Z,0.76
2022-12-22T02:36:32.834Z,0.77
2022-12-22T02:37:32.764Z,0.78
2022-12-22T02:38:32.742Z,0.77
2022-12-22T02:39:32.675Z,0.78
2022-12-22T02:40:38.949Z,0.77
2022-12-22T02:41:32.610Z,0.77
2022-12-22T02:42:32.554Z,0.69
2022-12-22T02:43:32.520Z,0.78
2022-12-22T02:44:32.457Z,0.79
2022-12-22T02:45:32.414Z,0.79
2022-12-22T02:46:32.477Z,0.79
2022-12-22T02:47:32.352Z,0.80
2022-12-22T02:48:32.277Z,0.80
2022-12-22T02:49:32.237Z,0.82
2022-12-22T02:50:32.193Z,0.80
2022-12-22T02:51:32.148Z,0.81
2022-12-22T02:52:32.112Z,0.79
2022-12-22T02:53:32.092Z,0.81
2022-12-22T02:54:32.018Z,0.75
2022-12-22T02:55:31.965Z,0.74
2022-12-22T02:56:31.927Z,0.83
2022-12-22T02:57:31.889Z,0.80
2022-12-22T02:58:31.831Z,0.74
2022-12-22T02:59:31.792Z,0.77
2022-12-22T03:00:31.736Z,0.84
2022-12-22T03:01:31.827Z,0.84
2022-12-22T03:02:31.860Z,0.85
2022-12-22T03:03:31.786Z,0.84
2022-12-22T03:04:31.580Z,0.80
2022-12-22T03:05:31.513Z,0.84
2022-12-22T03:06:31.469Z,0.84
2022-12-22T03:07:31.413Z,0.86
2022-12-22T03:08:31.371Z,0.85
2022-12-22T03:09:31.327Z,0.85
2022-12-22T03:10:31.273Z,0.85
2022-12-22T03:11:31.229Z,0.86
2022-12-22T03:12:31.185Z,0.80
2022-12-22T03:13:31.132Z,0.83
2022-12-22T03:14:31.130Z,0.86
2022-12-22T03:15:31.040Z,0.80
2022-12-22T03:16:31.022Z,0.88
2022-12-22T03:17:30.959Z,0.90
2022-12-22T03:18:30.939Z,0.88
2022-12-22T03:19:30.876Z,0.78
2022-12-22T03:20:30.829Z,0.78
2022-12-22T03:21:30.781Z,0.90
2022-12-22T03:22:30.741Z,0.90
2022-12-22T03:23:30.697Z,0.89
2022-12-22T03:24:30.653Z,0.90
2022-12-22T03:25:30.616Z,0.91
2022-12-22T03:26:30.582Z,0.90
2022-12-22T03:27:30.521Z,0.90
2022-12-22T03:28:30.482Z,0.90
2022-12-22T03:29:30.445Z,0.83
2022-12-22T03:30:30.420Z,0.91
2022-12-22T03:31:30.422Z,0.88
2022-12-22T03:32:30.311Z,0.84
2022-12-22T03:33:30.260Z,0.95
2022-12-22T03:34:30.245Z,0.87
2022-12-22T03:35:30.176Z,0.85
2022-12-22T03:36:30.159Z,0.94
2022-12-22T03:37:30.107Z,0.96
2022-12-22T03:38:30.067Z,0.96
2022-12-22T03:39:30.025Z,0.96
2022-12-22T03:40:29.971Z,0.90
2022-12-22T03:41:29.925Z,0.84
2022-12-22T03:42:29.883Z,0.93
2022-12-22T03:43:29.849Z,0.96
2022-12-22T03:44:29.802Z,0.83
2022-12-22T03:45:29.776Z,0.92
2022-12-22T03:46:29.793Z,0.90
2022-12-22T03:47:29.678Z,0.96
2022-12-22T03:48:29.624Z,0.98
2022-12-22T03:49:29.595Z,0.94
2022-12-22T03:50:29.569Z,0.91
2022-12-22T03:51:29.493Z,0.92
2022-12-22T03:52:29.462Z,0.84
2022-12-22T03:53:29.412Z,0.91
2022-12-22T03:54:29.374Z,0.96
2022-12-22T03:55:29.337Z,0.97
2022-12-22T03:56:29.293Z,0.97
2022-12-22T03:57:29.258Z,0.98
2022-12-22T03:58:29.236Z,0.98
2022-12-22T03:59:29.179Z,0.98
2022-12-22T04:00:29.160Z,0.97
2022-12-22T04:01:29.237Z,0.98
2022-12-22T04:02:29.213Z,0.96
2022-12-22T04:03:29.101Z,0.98
2022-12-22T04:04:28.982Z,0.98
2022-12-22T04:05:28.951Z,0.87
2022-12-22T04:06:28.939Z,0.99
2022-12-22T04:07:28.884Z,1.00
2022-12-22T04:08:28.835Z,1.00
2022-12-22T04:09:28.790Z,0.90
2022-12-22T04:10:28.749Z,0.97
2022-12-22T04:11:28.711Z,0.99
2022-12-22T04:12:28.668Z,1.01
2022-12-22T04:13:28.624Z,0.90
2022-12-22T04:14:33.962Z,0.94
2022-12-22T04:15:28.549Z,0.94
2022-12-22T04:16:28.513Z,0.95
2022-12-22T04:17:28.461Z,0.97
2022-12-22T04:18:28.421Z,0.93
2022-12-22T04:19:28.415Z,0.90
2022-12-22T04:20:28.376Z,1.03
2022-12-22T04:21:28.302Z,1.02
2022-12-22T04:22:28.299Z,1.02
2022-12-22T04:23:28.228Z,1.03
2022-12-22T04:24:28.215Z,1.03
2022-12-22T04:25:28.168Z,0.99
2022-12-22T04:26:28.101Z,1.03
2022-12-22T04:27:28.061Z,1.04
2022-12-22T04:28:28.071Z,1.05
2022-12-22T04:29:28.010Z,0.94
2022-12-22T04:30:27.960Z,1.01
2022-12-22T04:31:27.944Z,1.04
2022-12-22T04:32:27.865Z,1.03
2022-12-22T04:33:27.820Z,1.03
2022-12-22T04:34:27.781Z,0.93
2022-12-22T04:35:27.739Z,1.08
2022-12-22T04:36:27.701Z,0.96
2022-12-22T04:37:27.659Z,0.93
2022-12-22T04:38:27.642Z,1.04
2022-12-22T04:39:27.596Z,1.07
2022-12-22T04:40:27.527Z,1.06
2022-12-22T04:41:27.495Z,1.06
2022-12-22T04:42:27.452Z,1.07
2022-12-22T04:43:27.419Z,1.06
2022-12-22T04:44:27.378Z,1.09
2022-12-22T04:45:27.363Z,1.07
2022-12-22T04:46:27.414Z,1.08
2022-12-22T04:47:27.254Z,1.10
2022-12-22T04:48:27.212Z,1.08
2022-12-22T04:49:27.246Z,1.08
2022-12-22T04:50:27.134Z,1.08
2022-12-22T04:51:27.097Z,1.10
2022-12-22T04:52:27.058Z,1.08
2022-12-22T04:53:27.011Z,1.07
2022-12-22T04:54:27.007Z,1.10
2022-12-22T04:55:26.937Z,1.10
2022-12-22T04:56:26.897Z,1.08
2022-12-22T04:57:26.857Z,1.10
2022-12-22T04:58:26.818Z,1.08
2022-12-22T04:59:26.785Z,1.10
2022-12-22T05:00:26.757Z,1.11
2022-12-22T05:01:26.854Z,1.11
2022-12-22T05:02:26.774Z,1.11
2022-12-22T05:03:26.750Z,1.10
2022-12-22T05:04:26.597Z,1.11
2022-12-22T05:05:26.565Z,1.13
2022-12-22T05:06:26.527Z,1.12
2022-12-22T05:07:26.504Z,1.12
2022-12-22T05:08:26.464Z,1.11
2022-12-22T05:09:26.433Z,1.13
2022-12-22T05:10:26.426Z,1.12
2022-12-22T05:11:26.360Z,1.13
2022-12-22T05:12:26.323Z,1.15
2022-12-22T05:13:26.268Z,1.13
2022-12-22T05:14:26.243Z,1.13
2022-12-22T05:15:26.190Z,1.12
2022-12-22T05:16:26.160Z,1.15
2022-12-22T05:17:26.117Z,1.15
2022-12-22T05:18:26.078Z,1.14
2022-12-22T05:19:30.573Z,1.08
2022-12-22T05:20:25.989Z,1.08
2022-12-22T05:21:25.957Z,1.08
2022-12-22T05:22:25.913Z,1.11
2022-12-22T05:23:25.874Z,1.14
2022-12-22T05:24:25.833Z,1.15
2022-12-22T05:25:29.944Z,1.09
2022-12-22T05:26:25.794Z,1.09
2022-12-22T05:27:25.729Z,1.11
2022-12-22T05:28:25.692Z,1.13
2022-12-22T05:29:25.661Z,1.13
2022-12-22T05:30:25.709Z,1.11
2022-12-22T05:31:25.771Z,1.20
2022-12-22T05:32:25.554Z,1.21
2022-12-22T05:33:25.526Z,1.21
2022-12-22T05:34:25.490Z,1.20
2022-12-22T05:35:25.447Z,1.08
2022-12-22T05:36:25.408Z,1.18
2022-12-22T05:37:25.366Z,1.20
2022-12-22T05:38:25.327Z,1.18
2022-12-22T05:39:25.292Z,1.14
2022-12-22T05:40:25.264Z,1.34
2022-12-22T05:41:25.236Z,1.37
2022-12-22T05:42:25.327Z,1.20
2022-12-22T05:43:25.162Z,1.35
2022-12-22T05:44:25.123Z,1.26
2022-12-22T05:45:25.074Z,1.19
2022-12-22T05:46:25.067Z,1.19
2022-12-22T05:47:25.000Z,1.34
2022-12-22T05:48:30.901Z,1.27
2022-12-22T05:49:24.914Z,1.27
2022-12-22T05:50:24.878Z,1.27
2022-12-22T05:51:24.839Z,1.24
2022-12-22T05:52:24.813Z,1.25
2022-12-22T05:53:24.759Z,1.12
2022-12-22T05:54:24.718Z,1.23
2022-12-22T05:55:24.679Z,1.24
2022-12-22T05:56:24.645Z,1.25
2022-12-22T05:57:24.615Z,1.24
2022-12-22T05:58:24.597Z,1.23
2022-12-22T05:59:24.529Z,1.25
2022-12-22T06:00:24.485Z,1.18
2022-12-22T06:01:24.509Z,1.27
2022-12-22T06:02:24.620Z,1.27
2022-12-22T06:03:24.501Z,1.27
2022-12-22T06:04:24.527Z,1.22
2022-12-22T06:05:24.292Z,1.23
2022-12-22T06:06:24.255Z,1.20
2022-12-22T06:07:24.210Z,1.25
2022-12-22T06:08:24.176Z,1.26
2022-12-22T06:09:24.141Z,1.27
2022-12-22T06:10:24.095Z,1.16
2022-12-22T06:11:24.056Z,0.99
2022-12-22T06:12:24.027Z,1.24
2022-12-22T06:13:24.004Z,1.26
2022-12-22T06:14:23.990Z,1.28
2022-12-22T06:15:23.917Z,1.06
2022-12-22T06:16:24.020Z,1.22
2022-12-22T06:17:23.850Z,1.27
2022-12-22T06:18:23.811Z,1.29
2022-12-22T06:19:24.709Z,1.18
2022-12-22T06:20:23.935Z,1.27
2022-12-22T06:21:23.692Z,1.25
2022-12-22T06:22:24.016Z,1.14
2022-12-22T06:23:23.625Z,0.65
2022-12-22T06:24:23.596Z,0.60
2022-12-22T06:25:24.532Z,0.83
2022-12-22T06:26:23.557Z,1.03
2022-12-22T06:27:23.541Z,1.05
2022-12-22T06:28:23.522Z,1.00
2022-12-22T06:29:23.489Z,1.04
2022-12-22T06:30:30.929Z,1.00
2022-12-22T06:31:23.637Z,1.00
2022-12-22T06:32:23.410Z,1.02
2022-12-22T06:33:23.374Z,1.07
2022-12-22T06:34:23.339Z,1.18
2022-12-22T06:35:23.309Z,1.27
2022-12-22T06:36:24.269Z,1.14
2022-12-22T06:37:23.518Z,1.48
2022-12-22T06:38:23.188Z,1.48
2022-12-22T06:39:23.150Z,1.43
2022-12-22T06:40:23.137Z,1.43
2022-12-22T06:41:23.086Z,1.44
2022-12-22T06:42:23.532Z,1.67
2022-12-22T06:43:23.005Z,1.58
2022-12-22T06:44:22.967Z,1.53
2022-12-22T06:45:22.929Z,1.43
2022-12-22T06:46:22.987Z,1.40
2022-12-22T06:47:23.026Z,1.62
2022-12-22T06:48:23.173Z,0.77
2022-12-22T06:49:22.786Z,0.79
2022-12-22T06:50:22.743Z,0.67
2022-12-22T06:51:22.701Z,0.85
2022-12-22T06:52:23.080Z,0.84
2022-12-22T06:53:23.025Z,1.30
2022-12-22T06:54:26.344Z,0.90
2022-12-22T06:55:23.044Z,0.90
2022-12-22T06:56:22.549Z,0.90
2022-12-22T06:57:22.497Z,0.52
2022-12-22T06:58:22.454Z,0.51
2022-12-22T06:59:22.408Z,0.49
2022-12-22T07:00:22.532Z,0.50
2022-12-22T07:01:22.420Z,0.52
2022-12-22T07:02:22.774Z,0.51
2022-12-22T07:03:22.670Z,0.52
2022-12-22T07:04:22.241Z,0.51
2022-12-22T07:05:22.214Z,0.51
2022-12-22T07:06:22.167Z,0.50
2022-12-22T07:07:22.555Z,0.51
2022-12-22T07:08:22.119Z,0.51
2022-12-22T07:09:22.075Z,0.52
2022-12-22T07:10:22.532Z,0.50
2022-12-22T07:11:22.009Z,0.54
2022-12-22T07:12:21.985Z,0.59
2022-12-22T07:13:22.030Z,0.62
2022-12-22T07:14:21.930Z,0.61
2022-12-22T07:15:21.899Z,0.61
2022-12-22T07:16:21.893Z,0.66
2022-12-22T07:17:21.823Z,0.65
2022-12-22T07:18:22.570Z,0.59
2022-12-22T07:19:21.765Z,0.59
2022-12-22T07:20:21.764Z,0.60
2022-12-22T07:21:21.700Z,0.62
2022-12-22T07:22:25.768Z,0.61
2022-12-22T07:23:22.049Z,0.61
2022-12-22T07:24:21.598Z,0.58
2022-12-22T07:25:21.588Z,0.60
2022-12-22T07:26:21.539Z,0.59
2022-12-22T07:27:21.504Z,0.61
2022-12-22T07:28:21.640Z,0.61
2022-12-22T07:29:21.436Z,0.62
2022-12-22T07:30:21.403Z,0.63
2022-12-22T07:31:21.481Z,0.62
2022-12-22T07:32:21.342Z,0.61
2022-12-22T07:33:21.295Z,0.63
2022-12-22T07:34:21.281Z,0.64
2022-12-22T07:35:21.210Z,0.63
2022-12-22T07:36:21.560Z,0.64
2022-12-22T07:37:21.133Z,0.63
2022-12-22T07:38:21.091Z,0.60
2022-12-22T07:39:21.070Z,0.60
2022-12-22T07:40:21.017Z,0.63
2022-12-22T07:41:21.050Z,0.58
2022-12-22T07:42:20.933Z,0.60
2022-12-22T07:43:20.955Z,0.58
2022-12-22T07:44:21.368Z,0.60
2022-12-22T07:45:21.257Z,0.61
2022-12-22T07:46:21.066Z,0.63
2022-12-22T07:47:21.033Z,0.59
2022-12-22T07:48:21.344Z,0.60
2022-12-22T07:49:21.134Z,0.62
2022-12-22T07:50:21.166Z,0.65
2022-12-22T07:51:21.231Z,0.65
2022-12-22T07:52:21.130Z,0.69
2022-12-22T07:53:20.908Z,0.68
2022-12-22T07:54:21.215Z,0.67
2022-12-22T07:55:20.871Z,0.68
2022-12-22T07:56:19.739Z,0.69
2022-12-22T07:57:20.972Z,0.72
2022-12-22T07:58:20.734Z,0.71
2022-12-22T07:59:20.628Z,0.74
2022-12-22T08:00:20.704Z,0.73
2022-12-22T08:01:20.846Z,0.73
2022-12-22T08:02:21.174Z,0.71
2022-12-22T08:03:20.700Z,0.70
2022-12-22T08:04:20.566Z,0.72
2022-12-22T08:05:20.490Z,0.70
2022-12-22T08:06:20.576Z,0.71
2022-12-22T08:07:20.369Z,0.71
2022-12-22T08:08:20.682Z,0.72
2022-12-22T08:09:20.465Z,0.67
2022-12-22T08:10:20.334Z,0.66
2022-12-22T08:11:20.239Z,0.68
2022-12-22T08:12:20.235Z,0.67
2022-12-22T08:13:19.801Z,0.71
2022-12-22T08:14:19.727Z,0.70
2022-12-22T08:15:20.122Z,0.71
2022-12-22T08:16:19.719Z,0.74
2022-12-22T08:17:19.601Z,0.76
2022-12-22T08:18:19.569Z,0.80
2022-12-22T08:19:19.525Z,0.77
2022-12-22T08:20:19.502Z,0.81
2022-12-22T08:21:19.570Z,0.81
2022-12-22T08:22:19.441Z,0.81
2022-12-22T08:23:19.380Z,0.81
2022-12-22T08:24:19.720Z,0.85
2022-12-22T08:25:19.298Z,0.86
2022-12-22T08:26:19.566Z,0.86
2022-12-22T08:27:25.692Z,0.80
2022-12-22T08:28:19.180Z,0.80
2022-12-22T08:29:19.136Z,0.81
2022-12-22T08:30:19.098Z,0.77
2022-12-22T08:31:19.641Z,0.78
2022-12-22T08:32:19.026Z,0.81
2022-12-22T08:33:19.068Z,0.83
2022-12-22T08:34:18.944Z,0.84
2022-12-22T08:35:18.908Z,0.85
2022-12-22T08:36:19.068Z,0.84
2022-12-22T08:37:18.841Z,0.92
2022-12-22T08:38:19.094Z,0.97
2022-12-22T08:39:19.076Z,0.94
2022-12-22T08:40:18.704Z,0.96
2022-12-22T08:41:18.656Z,1.05
2022-12-22T08:42:19.074Z,1.06
2022-12-22T08:43:18.575Z,1.00
2022-12-22T08:44:18.524Z,1.20
2022-12-22T08:45:18.479Z,1.13
2022-12-22T08:46:18.498Z,1.16
2022-12-22T08:47:18.651Z,1.17
2022-12-22T08:48:18.340Z,0.91
2022-12-22T08:49:18.303Z,1.07
2022-12-22T08:50:18.583Z,1.14
2022-12-22T08:51:18.217Z,1.21
2022-12-22T08:52:19.402Z,1.12
2022-12-22T08:53:37.655Z,1.14
2022-12-22T08:54:18.120Z,1.15
2022-12-22T08:55:18.039Z,1.15
2022-12-22T08:56:18.000Z,1.16
2022-12-22T08:57:18.105Z,1.06
2022-12-22T08:58:17.908Z,1.10
2022-12-22T08:59:17.867Z,1.08
2022-12-22T09:00:17.819Z,1.06
2022-12-22T09:01:17.921Z,1.05
2022-12-22T09:02:17.917Z,1.06
2022-12-22T09:03:17.784Z,1.09
2022-12-22T09:04:17.656Z,1.11
2022-12-22T09:05:17.612Z,1.07
2022-12-22T09:06:17.580Z,1.10
2022-12-22T09:07:17.552Z,1.10
2022-12-22T09:08:17.589Z,1.16
2022-12-22T09:09:17.443Z,1.19
2022-12-22T09:10:17.432Z,1.25
2022-12-22T09:11:17.352Z,1.26
2022-12-22T09:12:17.366Z,1.71
2022-12-22T09:13:17.589Z,2.62
2022-12-22T09:14:17.249Z,7.14
2022-12-22T09:15:17.179Z,6.02
2022-12-22T09:16:17.624Z,6.05
2022-12-22T09:17:17.089Z,5.65
2022-12-22T09:18:17.068Z,6.65
2022-12-22T09:19:17.001Z,6.84
2022-12-22T09:20:16.948Z,6.47
2022-12-22T09:21:17.109Z,6.41
2022-12-22T09:22:21.731Z,5.93
2022-12-22T09:23:16.808Z,5.76
2022-12-22T09:24:16.812Z,5.55
2022-12-22T09:25:16.710Z,5.60
2022-12-22T09:26:16.686Z,5.41
2022-12-22T09:27:16.605Z,5.41
2022-12-22T09:28:16.554Z,5.46
2022-12-22T09:29:16.619Z,5.42
2022-12-22T09:30:16.601Z,5.19
2022-12-22T09:31:16.456Z,4.69
2022-12-22T09:32:16.415Z,5.10
2022-12-22T09:33:16.633Z,4.92
2022-12-22T09:34:18.291Z,4.80
2022-12-22T09:35:16.610Z,4.81
2022-12-22T09:36:16.171Z,4.82
2022-12-22T09:37:16.135Z,4.71
2022-12-22T09:38:16.071Z,4.82
2022-12-22T09:39:16.031Z,4.81
2022-12-22T09:40:16.110Z,4.58
2022-12-22T09:41:15.938Z,4.62
2022-12-22T09:42:15.920Z,4.70
2022-12-22T09:43:16.593Z,4.69
2022-12-22T09:44:15.799Z,4.74
2022-12-22T09:45:17.388Z,4.65
2022-12-22T09:46:15.800Z,4.18
2022-12-22T09:47:15.669Z,4.69
2022-12-22T09:48:15.660Z,4.46
2022-12-22T09:49:15.590Z,4.55
2022-12-22T09:50:15.597Z,4.51
2022-12-22T09:51:18.550Z,4.49
2022-12-22T09:52:15.511Z,4.49
2022-12-22T09:53:15.433Z,4.39
2022-12-22T09:54:15.399Z,4.41
2022-12-22T09:55:15.361Z,4.11
2022-12-22T09:56:15.625Z,4.41
2022-12-22T09:57:15.289Z,4.25
2022-12-22T09:58:18.301Z,4.24
2022-12-22T09:59:15.224Z,4.24
2022-12-22T10:00:15.180Z,3.96
2022-12-22T10:01:15.665Z,4.21
2022-12-22T10:02:15.217Z,4.09
2022-12-22T10:03:15.136Z,4.11
2022-12-22T10:04:15.023Z,4.20
2022-12-22T10:05:15.116Z,4.07
2022-12-22T10:06:14.950Z,3.99
2022-12-22T10:07:14.915Z,4.19
2022-12-22T10:08:14.943Z,3.52
2022-12-22T10:09:46.168Z,1.93
2022-12-22T10:10:14.804Z,1.83
2022-12-22T10:11:14.798Z,2.05
2022-12-22T10:12:15.107Z,2.16
2022-12-22T10:13:14.692Z,22.94
2022-12-22T10:14:14.690Z,1000.00
2022-12-22T10:15:21.463Z,1000.00
2022-12-22T10:16:14.605Z,1000.00
2022-12-22T10:17:14.627Z,1000.00
2022-12-22T10:18:14.505Z,1000.00
2022-12-22T10:19:14.483Z,387.81
2022-12-22T10:20:14.623Z,112.57
2022-12-22T10:21:14.502Z,91.38
2022-12-22T10:22:14.441Z,210.67
2022-12-22T10:23:14.431Z,58.49
2022-12-22T10:24:14.439Z,53.32
2022-12-22T10:25:14.613Z,28.39
2022-12-22T10:26:28.033Z,42.54
2022-12-22T10:27:14.477Z,43.76
2022-12-22T10:28:14.481Z,47.40
2022-12-22T10:29:14.692Z,63.60
2022-12-22T10:30:14.643Z,603.04
2022-12-22T10:31:14.445Z,1000.00
2022-12-22T10:32:14.500Z,1000.00
2022-12-22T10:33:14.407Z,1000.00
2022-12-22T10:34:14.386Z,1000.00
2022-12-22T10:35:14.647Z,1000.00
2022-12-22T10:36:14.613Z,742.07
2022-12-22T10:37:14.357Z,222.59
2022-12-22T10:38:21.077Z,93.04
2022-12-22T10:39:14.369Z,93.38
2022-12-22T10:40:14.368Z,61.29
2022-12-22T10:41:14.381Z,46.36
2022-12-22T10:42:14.428Z,26.58
2022-12-22T10:43:14.469Z,24.89
2022-12-22T10:44:14.435Z,24.14
2022-12-22T10:45:14.426Z,13.19
2022-12-22T10:46:14.884Z,15.78
2022-12-22T10:47:17.637Z,34.84
2022-12-22T10:48:14.482Z,22.82
2022-12-22T10:49:14.480Z,23.33
2022-12-22T10:50:14.508Z,29.96
2022-12-22T10:51:14.625Z,42.75
2022-12-22T10:52:14.519Z,1000.00
2022-12-22T10:53:14.498Z,204.31
2022-12-22T10:54:14.502Z,201.42
2022-12-22T10:55:14.503Z,1000.00
2022-12-22T10:56:14.525Z,1000.00
2022-12-22T10:57:14.624Z,1000.00
2022-12-22T10:58:14.494Z,1000.00
2022-12-22T10:59:14.499Z,839.20
2022-12-22T11:00:14.490Z,1000.00
2022-12-22T11:01:14.585Z,1000.00
2022-12-22T11:02:14.728Z,669.17
2022-12-22T11:03:19.048Z,499.51
2022-12-22T11:04:14.468Z,502.15
2022-12-22T11:05:14.495Z,856.08
2022-12-22T11:06:14.506Z,1000.00
2022-12-22T11:07:14.632Z,1000.00
2022-12-22T11:08:14.432Z,1000.00
2022-12-22T11:09:33.089Z,1000.00
2022-12-22T11:10:14.417Z,1000.00
2022-12-22T11:11:14.626Z,1000.00
2022-12-22T11:12:14.628Z,1000.00
2022-12-22T11:13:14.353Z,1000.00
2022-12-22T11:14:14.389Z,1000.00
2022-12-22T11:15:20.216Z,1000.00
2022-12-22T11:16:14.518Z,1000.00
2022-12-22T11:17:14.712Z,1000.00
2022-12-22T11:18:14.378Z,1000.00
2022-12-22T11:19:14.403Z,1000.00
2022-12-22T11:20:14.452Z,1000.00
2022-12-22T11:21:20.199Z,1000.00
2022-12-22T11:22:14.352Z,1000.00
2022-12-22T11:23:14.330Z,1000.00
2022-12-22T11:24:14.637Z,1000.00
2022-12-22T11:25:14.313Z,1000.00
2022-12-22T11:26:14.633Z,1000.00
2022-12-22T11:27:14.302Z,1000.00
2022-12-22T11:28:14.312Z,1000.00
2022-12-22T11:29:14.252Z,1000.00
2022-12-22T11:30:14.284Z,1000.00
2022-12-22T11:31:14.745Z,1000.00
2022-12-22T11:32:14.224Z,1000.00
2022-12-22T11:33:14.175Z,1000.00
2022-12-22T11:34:20.620Z,1000.00
2022-12-22T11:35:14.136Z,1000.00
2022-12-22T11:36:14.147Z,1000.00
2022-12-22T11:37:14.091Z,1000.00
2022-12-22T11:38:14.078Z,1000.00
2022-12-22T11:39:14.498Z,1000.00
2022-12-22T11:40:14.055Z,1000.00
2022-12-22T11:41:14.138Z,1000.00
2022-12-22T11:42:14.141Z,1000.00
2022-12-22T11:43:13.919Z,1000.00
2022-12-22T11:44:13.895Z,1000.00
2022-12-22T11:45:13.866Z,1000.00
2022-12-22T11:46:13.977Z,1000.00
2022-12-22T11:47:14.148Z,1000.00
2022-12-22T11:48:13.785Z,1000.00
2022-12-22T11:49:13.756Z,1000.00
2022-12-22T11:51:02.159Z,1000.00
2022-12-22T11:51:13.929Z,1000.00
2022-12-22T11:52:14.151Z,1000.00
2022-12-22T11:53:13.629Z,1000.00
2022-12-22T11:54:13.599Z,1000.00
2022-12-22T11:55:13.561Z,1000.00
2022-12-22T11:56:13.534Z,1000.00
2022-12-22T11:57:13.512Z,1000.00
2022-12-22T11:58:13.478Z,1000.00
2022-12-22T11:59:13.441Z,931.18
2022-12-22T12:00:13.501Z,1000.00
2022-12-22T12:01:19.008Z,1000.00
2022-12-22T12:02:13.508Z,1000.00
2022-12-22T12:03:13.379Z,1000.00
2022-12-22T12:04:13.336Z,971.57
2022-12-22T12:05:13.241Z,974.24
2022-12-22T12:06:13.234Z,330.51
2022-12-22T12:07:13.180Z,281.83
2022-12-22T12:08:13.147Z,366.86
2022-12-22T12:09:13.124Z,560.60
2022-12-22T12:10:13.101Z,808.09
2022-12-22T12:11:13.072Z,865.84
2022-12-22T12:12:13.015Z,757.74
2022-12-22T12:13:12.996Z,1000.00
2022-12-22T12:14:12.963Z,563.94
2022-12-22T12:15:12.925Z,697.39
2022-12-22T12:16:12.990Z,502.91
2022-12-22T12:17:12.864Z,345.30
2022-12-22T12:18:12.836Z,169.04
2022-12-22T12:19:12.809Z,163.38
2022-12-22T12:20:12.778Z,153.08
2022-12-22T12:21:12.747Z,91.59
2022-12-22T12:22:12.744Z,34.97
2022-12-22T12:23:12.688Z,26.87
2022-12-22T12:24:12.668Z,28.53
2022-12-22T12:25:12.626Z,23.19
2022-12-22T12:26:12.598Z,24.32
2022-12-22T12:27:12.589Z,26.82
2022-12-22T12:28:12.544Z,30.14
2022-12-22T12:29:12.504Z,32.70
2022-12-22T12:30:40.187Z,34.67
2022-12-22T12:31:12.513Z,34.72
2022-12-22T12:32:12.664Z,34.96
2022-12-22T12:33:12.390Z,35.33
2022-12-22T12:34:12.364Z,39.65
2022-12-22T12:35:12.325Z,47.29
2022-12-22T12:36:12.298Z,48.34
2022-12-22T12:37:12.663Z,48.25
2022-12-22T12:38:25.978Z,51.62
2022-12-22T12:39:12.282Z,11.33
2022-12-22T12:40:12.173Z,10.32
2022-12-22T12:41:12.131Z,13.44
2022-12-22T12:42:12.164Z,14.23
2022-12-22T12:43:16.220Z,14.00
2022-12-22T12:44:12.216Z,16.99
2022-12-22T12:45:12.179Z,23.52
2022-12-22T12:46:12.186Z,22.24
2022-12-22T12:47:12.208Z,24.79
2022-12-22T12:48:12.056Z,37.39
2022-12-22T12:49:12.010Z,40.26
2022-12-22T12:50:11.972Z,40.97
2022-12-22T12:51:11.928Z,53.00
2022-12-22T12:52:11.923Z,56.54
2022-12-22T12:53:11.865Z,44.20
2022-12-22T12:54:11.844Z,44.90
2022-12-22T12:55:17.055Z,43.44
2022-12-22T12:56:11.757Z,43.65
2022-12-22T12:57:11.693Z,44.36
2022-12-22T12:58:11.645Z,46.03
2022-12-22T12:59:11.614Z,48.95
2022-12-22T13:00:11.579Z,45.32
2022-12-22T13:01:11.568Z,43.29
2022-12-22T13:02:11.823Z,49.72
2022-12-22T13:03:25.196Z,87.40
2022-12-22T13:04:11.567Z,87.67
2022-12-22T13:05:11.432Z,67.93
2022-12-22T13:06:11.381Z,70.04
2022-12-22T13:07:11.313Z,63.59
2022-12-22T13:08:11.695Z,77.26
2022-12-22T13:09:48.615Z,109.57
2022-12-22T13:10:11.225Z,72.07
2022-12-22T13:11:11.159Z,76.64
2022-12-22T13:12:13.099Z,101.08
2022-12-22T13:13:11.085Z,82.23
2022-12-22T13:14:11.094Z,79.51
2022-12-22T13:15:11.007Z,72.49
2022-12-22T13:16:11.054Z,106.54
2022-12-22T13:17:10.957Z,106.02
2022-12-22T13:18:11.063Z,79.37
2022-12-22T13:19:10.862Z,99.25
2022-12-22T13:20:10.820Z,62.33
2022-12-22T13:22:10.733Z,103.75
2022-12-22T13:23:10.723Z,87.01
2022-12-22T13:24:27.488Z,99.79
2022-12-22T13:25:10.599Z,72.67
2022-12-22T13:26:10.582Z,81.02
2022-12-22T13:27:10.513Z,66.63
2022-12-22T13:28:10.478Z,85.98
2022-12-22T13:29:10.432Z,101.07
2022-12-22T13:30:13.044Z,70.42
2022-12-22T13:31:10.404Z,65.81
2022-12-22T13:32:10.322Z,70.75
2022-12-22T13:33:10.714Z,75.52
2022-12-22T13:34:10.248Z,79.85
2022-12-22T13:35:44.868Z,68.03
2022-12-22T13:36:10.172Z,70.81
2022-12-22T13:37:10.112Z,71.56
2022-12-22T13:38:10.075Z,55.78
2022-12-22T13:39:10.044Z,62.88
2022-12-22T13:40:10.018Z,72.10
2022-12-22T13:41:09.952Z,82.70
2022-12-22T13:42:09.985Z,75.17
2022-12-22T13:43:09.876Z,64.36
2022-12-22T13:44:09.839Z,77.96
2022-12-22T13:45:09.798Z,74.85
2022-12-22T13:46:09.753Z,63.95
2022-12-22T13:47:09.766Z,74.99
2022-12-22T13:48:09.674Z,69.27
2022-12-22T13:49:09.633Z,97.59
2022-12-22T13:50:10.819Z,86.87
2022-12-22T13:51:09.574Z,60.02
2022-12-22T13:52:09.521Z,69.51
2022-12-22T13:53:09.488Z,81.17
2022-12-22T13:54:11.692Z,75.17
2022-12-22T13:55:09.412Z,61.83
2022-12-22T13:56:09.377Z,59.18
2022-12-22T13:57:09.324Z,77.10
2022-12-22T13:58:09.328Z,76.14
2022-12-22T13:59:09.245Z,79.48
2022-12-22T14:00:09.203Z,52.90
2022-12-22T14:01:09.226Z,52.63
2022-12-22T14:02:09.234Z,51.55
2022-12-22T14:03:09.577Z,65.90
2022-12-22T14:04:09.238Z,56.72
2022-12-22T14:05:09.022Z,58.54
2022-12-22T14:06:08.980Z,65.05
2022-12-22T14:07:08.937Z,60.66
2022-12-22T14:08:08.904Z,79.15
2022-12-22T14:09:08.863Z,80.60
2022-12-22T14:10:08.821Z,64.42
2022-12-22T14:11:08.803Z,58.51
2022-12-22T14:12:08.775Z,50.09
2022-12-22T14:13:08.712Z,64.85
2022-12-22T14:14:08.711Z,64.92
2022-12-22T14:15:08.638Z,63.67
2022-12-22T14:16:08.678Z,74.16
2022-12-22T14:17:08.566Z,65.81
2022-12-22T14:18:08.538Z,47.27
2022-12-22T14:19:08.498Z,37.82
2022-12-22T14:20:08.467Z,55.28
2022-12-22T14:21:08.426Z,75.74
2022-12-22T14:22:08.410Z,59.82
2022-12-22T14:23:08.343Z,47.39
2022-12-22T14:24:08.705Z,52.47
2022-12-22T14:25:08.269Z,45.43
2022-12-22T14:26:08.228Z,49.53
2022-12-22T14:27:08.189Z,59.16
2022-12-22T14:28:08.153Z,45.85
2022-12-22T14:29:08.105Z,51.15
2022-12-22T14:30:08.121Z,41.59
2022-12-22T14:31:08.033Z,61.97
2022-12-22T14:32:08.100Z,64.56
2022-12-22T14:33:07.947Z,59.45
2022-12-22T14:34:07.910Z,49.27
2022-12-22T14:35:07.872Z,44.10
2022-12-22T14:36:07.829Z,77.25
2022-12-22T14:37:07.781Z,60.83
2022-12-22T14:38:07.760Z,43.86
2022-12-22T14:39:09.715Z,52.93
2022-12-22T14:40:07.695Z,53.38
2022-12-22T14:41:07.648Z,54.39
2022-12-22T14:42:07.584Z,38.84